createdAt,value
2018-09-14T00:00:07.148Z,22.80
2018-09-14T00:02:34.601Z,23.00
2018-09-14T00:05:02.063Z,23.20
2018-09-14T00:07:29.530Z,23.30
2018-09-14T00:09:57.050Z,23.40
2018-09-14T00:12:24.509Z,23.40
2018-09-14T00:14:51.933Z,23.50
2018-09-14T00:17:19.382Z,23.50
2018-09-14T00:19:46.826Z,23.50
2018-09-14T00:22:14.286Z,23.60
2018-09-14T00:24:41.725Z,23.70
2018-09-14T00:27:09.187Z,23.70
2018-09-14T00:29:36.634Z,23.60
2018-09-14T00:32:04.470Z,22.60
2018-09-14T00:34:31.973Z,22.20
2018-09-14T00:36:59.618Z,22.50
2018-09-14T00:39:27.106Z,22.80
2018-09-14T00:41:54.627Z,23.00
2018-09-14T00:44:22.141Z,23.00
2018-09-14T00:46:49.689Z,23.00
2018-09-14T00:49:17.258Z,22.90
2018-09-14T00:51:44.816Z,23.00
2018-09-14T00:54:12.275Z,23.10
2018-09-14T00:56:39.821Z,22.90
2018-09-14T00:59:07.393Z,22.70
2018-09-14T01:01:34.888Z,22.80
2018-09-14T01:04:02.474Z,23.00
2018-09-14T01:06:30.023Z,23.30
2018-09-14T01:08:57.458Z,23.40
2018-09-14T01:11:24.969Z,23.50
2018-09-14T01:13:52.438Z,23.60
2018-09-14T01:16:19.845Z,23.50
2018-09-14T01:18:47.391Z,23.10
2018-09-14T01:21:14.830Z,22.90
2018-09-14T01:23:42.271Z,22.60
2018-09-14T01:26:09.690Z,22.30
2018-09-14T01:28:37.133Z,22.00
2018-09-14T01:31:04.653Z,22.40
2018-09-14T01:33:32.206Z,22.80
2018-09-14T01:36:12.550Z,23.20
2018-09-14T01:38:40.652Z,23.30
2018-09-14T01:41:08.414Z,23.40
2018-09-14T01:43:35.902Z,23.00
2018-09-14T01:46:03.321Z,23.10
2018-09-14T01:48:30.774Z,23.30
2018-09-14T01:50:58.275Z,23.50
2018-09-14T01:53:26.211Z,23.50
2018-09-14T01:55:53.745Z,23.60
2018-09-14T01:58:21.222Z,23.60
2018-09-14T02:00:49.844Z,23.70
2018-09-14T02:03:18.741Z,23.70
2018-09-14T02:05:47.601Z,23.70
2018-09-14T02:08:15.128Z,23.70
2018-09-14T02:10:42.611Z,23.70
2018-09-14T02:13:10.089Z,23.70
2018-09-14T02:15:37.625Z,23.70
2018-09-14T02:18:05.069Z,23.20
2018-09-14T02:20:32.552Z,23.20
2018-09-14T02:22:59.985Z,23.40
2018-09-14T02:25:27.445Z,23.50
2018-09-14T02:27:54.922Z,22.60
2018-09-14T02:30:22.355Z,20.90
2018-09-14T02:32:49.758Z,20.10
2018-09-14T02:35:17.295Z,19.70
2018-09-14T02:37:44.713Z,19.30
2018-09-14T02:40:12.160Z,19.70
2018-09-14T02:42:39.650Z,20.80
2018-09-14T02:45:07.202Z,21.60
2018-09-14T02:47:34.869Z,22.00
2018-09-14T02:50:02.365Z,22.30
2018-09-14T02:52:29.854Z,22.60
2018-09-14T02:54:57.339Z,22.80
2018-09-14T02:57:24.770Z,23.00
2018-09-14T02:59:52.290Z,23.10
2018-09-14T03:02:19.837Z,23.20
2018-09-14T03:04:47.315Z,23.30
2018-09-14T03:07:14.753Z,23.40
2018-09-14T03:09:42.405Z,23.30
2018-09-14T03:12:09.903Z,22.40
2018-09-14T03:14:37.321Z,21.90
2018-09-14T03:17:04.924Z,22.30
2018-09-14T03:19:32.413Z,22.60
2018-09-14T03:21:59.942Z,22.30
2018-09-14T03:24:27.361Z,21.90
2018-09-14T03:26:54.800Z,21.80
2018-09-14T03:29:22.266Z,22.00
2018-09-14T03:31:49.673Z,22.30
2018-09-14T03:34:17.230Z,22.60
2018-09-14T03:36:44.742Z,22.80
2018-09-14T03:39:12.178Z,22.90
2018-09-14T03:41:39.630Z,22.90
2018-09-14T03:44:07.168Z,22.90
2018-09-14T03:46:34.584Z,23.00
2018-09-14T03:49:02.457Z,23.10
2018-09-14T03:51:30.050Z,23.30
2018-09-14T03:53:57.550Z,23.30
2018-09-14T03:56:24.985Z,22.90
2018-09-14T03:58:52.490Z,22.90
2018-09-14T04:01:19.921Z,23.00
2018-09-14T04:03:47.320Z,23.20
2018-09-14T04:06:14.740Z,23.30
2018-09-14T04:08:42.316Z,23.30
2018-09-14T04:11:09.774Z,23.30
2018-09-14T04:13:37.305Z,23.50
2018-09-14T04:16:04.901Z,23.50
2018-09-14T04:18:32.334Z,23.50
2018-09-14T04:20:59.986Z,23.30
2018-09-14T04:23:27.457Z,23.30
2018-09-14T04:25:54.909Z,23.30
2018-09-14T04:28:22.425Z,23.20
2018-09-14T04:30:50.109Z,22.00
2018-09-14T04:33:17.679Z,20.90
2018-09-14T04:35:45.136Z,20.20
2018-09-14T04:38:12.708Z,19.90
2018-09-14T04:40:40.218Z,19.80
2018-09-14T04:43:07.652Z,19.90
2018-09-14T04:45:35.230Z,20.00
2018-09-14T04:48:02.904Z,20.00
2018-09-14T04:50:30.343Z,20.10
2018-09-14T04:52:57.980Z,20.20
2018-09-14T04:55:25.430Z,19.70
2018-09-14T04:57:52.996Z,19.40
2018-09-14T05:00:20.579Z,19.20
2018-09-14T05:02:48.086Z,19.10
2018-09-14T05:05:15.670Z,19.50
2018-09-14T05:07:43.163Z,20.00
2018-09-14T05:10:10.522Z,20.10
2018-09-14T05:12:38.068Z,20.20
2018-09-14T05:15:05.541Z,20.70
2018-09-14T05:17:33.028Z,21.30
2018-09-14T05:20:00.462Z,21.80
2018-09-14T05:22:27.907Z,22.20
2018-09-14T05:24:55.371Z,22.50
2018-09-14T05:27:22.840Z,22.40
2018-09-14T05:29:50.317Z,22.20
2018-09-14T05:32:17.756Z,22.50
2018-09-14T05:34:45.157Z,22.70
2018-09-14T05:37:12.590Z,22.90
2018-09-14T05:39:40.069Z,23.10
2018-09-14T05:42:07.507Z,23.20
2018-09-14T05:44:35.019Z,23.30
2018-09-14T05:47:02.451Z,22.80
2018-09-14T05:49:29.925Z,21.70
2018-09-14T05:51:57.362Z,21.00
2018-09-14T05:54:24.905Z,21.00
2018-09-14T05:56:52.289Z,21.70
2018-09-14T05:59:19.706Z,22.00
2018-09-14T06:01:47.265Z,22.30
2018-09-14T06:04:14.778Z,22.50
2018-09-14T06:06:42.293Z,22.50
2018-09-14T06:09:11.325Z,22.50
2018-09-14T06:11:38.728Z,22.50
2018-09-14T06:14:06.473Z,22.40
2018-09-14T06:16:34.089Z,21.40
2018-09-14T06:19:01.737Z,20.80
2018-09-14T06:21:29.249Z,21.40
2018-09-14T06:23:56.718Z,22.10
2018-09-14T06:26:24.250Z,22.00
2018-09-14T06:28:51.698Z,21.80
2018-09-14T06:31:19.118Z,20.80
2018-09-14T06:33:46.842Z,20.00
2018-09-14T06:36:14.265Z,20.20
2018-09-14T06:38:41.745Z,20.40
2018-09-14T06:41:09.171Z,20.60
2018-09-14T06:43:36.657Z,21.10
2018-09-14T06:46:04.263Z,21.30
2018-09-14T06:48:31.746Z,21.10
2018-09-14T06:50:59.191Z,20.70
2018-09-14T06:53:26.616Z,20.80
2018-09-14T06:55:54.202Z,20.90
2018-09-14T06:58:21.745Z,21.00
2018-09-14T07:00:49.470Z,20.70
2018-09-14T07:03:16.898Z,20.80
2018-09-14T07:05:44.394Z,20.30
2018-09-14T07:08:11.981Z,20.00
2018-09-14T07:10:39.469Z,20.20
2018-09-14T07:13:06.990Z,20.20
2018-09-14T07:15:34.478Z,20.40
2018-09-14T07:18:02.076Z,20.70
2018-09-14T07:20:29.694Z,20.30
2018-09-14T07:22:57.118Z,20.00
2018-09-14T07:25:24.576Z,19.70
2018-09-14T07:27:52.058Z,19.50
2018-09-14T07:30:19.505Z,19.30
2018-09-14T07:32:47.057Z,19.10
2018-09-14T07:35:14.705Z,19.10
2018-09-14T07:37:42.167Z,19.10
2018-09-14T07:40:09.737Z,19.10
2018-09-14T07:42:37.233Z,19.10
2018-09-14T07:45:04.837Z,19.10
2018-09-14T07:47:32.468Z,19.20
2018-09-14T07:50:00.115Z,19.20
2018-09-14T07:52:27.699Z,19.70
2018-09-14T07:54:55.255Z,19.60
2018-09-14T07:57:22.939Z,19.10
2018-09-14T07:59:50.370Z,18.80
2018-09-14T08:02:17.930Z,18.60
2018-09-14T08:04:45.408Z,18.60
2018-09-14T08:07:12.998Z,18.60
2018-09-14T08:09:40.426Z,18.60
2018-09-14T08:12:14.653Z,18.90
2018-09-14T08:14:42.134Z,18.90
2018-09-14T08:17:09.623Z,19.30
2018-09-14T08:19:37.145Z,19.50
2018-09-14T08:22:04.810Z,19.30
2018-09-14T08:24:32.318Z,19.10
2018-09-14T08:26:59.932Z,19.30
2018-09-14T08:29:27.501Z,19.70
2018-09-14T08:31:54.961Z,19.60
2018-09-14T08:34:22.453Z,19.40
2018-09-14T08:36:49.873Z,19.70
2018-09-14T08:39:17.425Z,20.10
2018-09-14T08:41:44.888Z,20.50
2018-09-14T08:44:12.505Z,20.40
2018-09-14T08:46:39.931Z,20.60
2018-09-14T08:49:07.569Z,20.00
2018-09-14T08:51:35.098Z,19.80
2018-09-14T08:54:02.660Z,19.80
2018-09-14T08:56:30.342Z,19.40
2018-09-14T08:58:57.892Z,19.40
2018-09-14T09:01:25.436Z,19.60
2018-09-14T09:03:53.143Z,19.60
2018-09-14T09:06:20.656Z,19.70
2018-09-14T09:08:48.102Z,20.20
2018-09-14T09:11:15.571Z,20.50
2018-09-14T09:13:43.129Z,20.60
2018-09-14T09:16:10.670Z,21.20
2018-09-14T09:18:38.216Z,22.50
2018-09-14T09:21:05.664Z,23.60
2018-09-14T09:23:33.192Z,24.70
2018-09-14T09:26:00.595Z,24.70
2018-09-14T09:28:28.195Z,24.50
2018-09-14T09:30:55.636Z,25.40
2018-09-14T09:33:23.350Z,25.50
2018-09-14T09:35:50.958Z,24.80
2018-09-14T09:38:18.515Z,24.40
2018-09-14T09:40:45.959Z,24.30
2018-09-14T09:43:13.620Z,24.30
2018-09-14T09:45:41.229Z,23.90
2018-09-14T09:48:08.722Z,25.60
2018-09-14T09:50:36.234Z,27.00
2018-09-14T09:53:03.826Z,24.70
2018-09-14T09:55:31.294Z,23.20
2018-09-14T09:57:58.758Z,23.30
2018-09-14T10:00:31.895Z,24.50
2018-09-14T10:03:05.050Z,24.60
2018-09-14T10:05:38.282Z,24.00
2018-09-14T10:08:05.753Z,24.00
2018-09-14T10:10:33.430Z,24.20
2018-09-14T10:13:01.078Z,24.40
2018-09-14T10:15:28.700Z,24.00
2018-09-14T10:17:56.166Z,24.20
2018-09-14T10:20:23.625Z,23.20
2018-09-14T10:22:51.132Z,23.50
2018-09-14T10:25:18.667Z,23.70
2018-09-14T10:27:46.094Z,23.30
2018-09-14T10:30:13.593Z,22.90
2018-09-14T10:32:41.046Z,23.10
2018-09-14T10:35:08.522Z,23.10
2018-09-14T10:37:35.941Z,22.60
2018-09-14T10:40:03.462Z,22.10
2018-09-14T10:42:30.884Z,22.40
2018-09-14T10:44:58.345Z,23.20
2018-09-14T10:47:25.750Z,23.60
2018-09-14T10:49:53.300Z,23.90
2018-09-14T10:52:20.948Z,24.00
2018-09-14T10:54:48.448Z,24.20
2018-09-14T10:57:15.874Z,24.20
2018-09-14T10:59:43.355Z,24.30
2018-09-14T11:02:10.801Z,24.30
2018-09-14T11:04:38.301Z,24.40
2018-09-14T11:07:05.985Z,24.40
2018-09-14T11:09:33.393Z,24.50
2018-09-14T11:12:00.808Z,24.40
2018-09-14T11:14:28.269Z,24.40
2018-09-14T11:16:55.798Z,24.20
2018-09-14T11:19:23.258Z,24.30
2018-09-14T11:21:50.759Z,24.60
2018-09-14T11:24:18.446Z,24.70
2018-09-14T11:26:45.896Z,24.80
2018-09-14T11:29:13.349Z,24.70
2018-09-14T11:31:40.853Z,24.60
2018-09-14T11:34:08.312Z,24.60
2018-09-14T11:36:35.867Z,24.70
2018-09-14T11:39:04.938Z,24.60
2018-09-14T11:41:32.403Z,24.60
2018-09-14T11:43:59.962Z,24.50
2018-09-14T11:46:27.409Z,24.00
2018-09-14T11:48:54.872Z,23.90
2018-09-14T11:51:22.342Z,24.10
2018-09-14T11:53:49.788Z,24.30
2018-09-14T11:56:17.265Z,24.50
2018-09-14T11:58:44.742Z,24.60
2018-09-14T12:01:12.204Z,24.70
2018-09-14T12:03:39.667Z,24.70
2018-09-14T12:06:07.134Z,24.80
2018-09-14T12:08:34.590Z,24.80
2018-09-14T12:11:02.135Z,24.90
2018-09-14T12:13:29.655Z,24.90
2018-09-14T12:15:57.097Z,24.90
2018-09-14T12:18:24.557Z,25.00
2018-09-14T12:20:52.283Z,24.50
2018-09-14T12:23:19.761Z,24.20
2018-09-14T12:25:47.274Z,24.60
2018-09-14T12:28:14.858Z,24.80
2018-09-14T12:30:42.414Z,25.00
2018-09-14T12:33:09.986Z,25.00
2018-09-14T12:35:37.879Z,25.20
2018-09-14T12:38:05.625Z,25.40
2018-09-14T12:40:33.155Z,25.50
2018-09-14T12:43:00.814Z,25.50
2018-09-14T12:45:28.492Z,25.70
2018-09-14T12:47:55.983Z,25.80
2018-09-14T12:50:23.568Z,25.80
2018-09-14T12:52:51.114Z,25.20
2018-09-14T12:55:18.706Z,25.50
2018-09-14T13:00:39.709Z,26.70
2018-09-14T13:03:07.222Z,26.50
2018-09-14T13:05:34.688Z,26.10
2018-09-14T13:08:02.174Z,25.70
2018-09-14T13:10:29.700Z,25.70
2018-09-14T13:12:57.164Z,25.80
2018-09-14T13:15:24.632Z,25.80
2018-09-14T13:17:52.088Z,25.80
2018-09-14T13:20:19.591Z,25.90
2018-09-14T13:22:47.030Z,25.90
2018-09-14T13:25:14.531Z,26.20
2018-09-14T13:27:41.977Z,27.40
2018-09-14T13:30:09.631Z,28.10
2018-09-14T13:32:37.742Z,27.40
2018-09-14T13:35:05.244Z,26.60
2018-09-14T13:37:32.672Z,26.10
2018-09-14T13:40:00.146Z,25.90
2018-09-14T13:42:27.749Z,26.90
2018-09-14T13:44:55.343Z,26.50
2018-09-14T13:47:22.860Z,26.10
2018-09-14T13:49:50.303Z,26.30
2018-09-14T13:52:17.872Z,25.90
2018-09-14T13:54:45.305Z,25.60
2018-09-14T13:57:12.785Z,25.40
2018-09-14T13:59:40.276Z,25.20
2018-09-14T14:02:07.750Z,25.10
2018-09-14T14:04:35.238Z,25.10
2018-09-14T14:07:02.713Z,25.10
2018-09-14T14:09:30.146Z,25.60
2018-09-14T14:11:57.626Z,27.50
2018-09-14T14:14:25.073Z,28.80
2018-09-14T14:16:52.545Z,29.40
2018-09-14T14:19:20.031Z,28.60
2018-09-14T14:21:47.662Z,27.70
2018-09-14T14:24:15.121Z,26.90
2018-09-14T14:26:42.566Z,26.20
2018-09-14T14:29:10.020Z,25.80
2018-09-14T14:31:37.620Z,25.60
2018-09-14T14:34:05.216Z,25.50
2018-09-14T14:36:32.762Z,26.00
2018-09-14T14:39:00.220Z,26.60
2018-09-14T14:41:27.717Z,26.40
2018-09-14T14:43:55.301Z,26.00
2018-09-14T14:46:22.733Z,25.80
2018-09-14T14:48:50.233Z,26.10
2018-09-14T14:51:17.717Z,26.30
2018-09-14T14:53:45.167Z,26.40
2018-09-14T14:56:12.618Z,26.00
2018-09-14T14:58:40.076Z,25.70
2018-09-14T15:01:07.493Z,25.40
2018-09-14T15:03:35.086Z,25.20
2018-09-14T15:06:02.687Z,25.20
2018-09-14T15:08:30.105Z,25.10
2018-09-14T15:10:57.618Z,25.10
2018-09-14T15:13:25.087Z,25.00
2018-09-14T15:15:52.542Z,24.90
2018-09-14T15:18:20.038Z,24.90
2018-09-14T15:20:47.569Z,24.80
2018-09-14T15:23:15.048Z,24.80
2018-09-14T15:25:42.554Z,24.90
2018-09-14T15:28:10.067Z,25.00
2018-09-14T15:30:37.545Z,24.90
2018-09-14T15:33:05.205Z,24.80
2018-09-14T15:35:32.658Z,24.60
2018-09-14T15:38:00.170Z,24.60
2018-09-14T15:40:27.617Z,24.70
2018-09-14T15:42:55.088Z,24.60
2018-09-14T15:45:22.516Z,24.60
2018-09-14T15:47:50.083Z,24.60
2018-09-14T15:50:17.543Z,24.60
2018-09-14T15:52:45.179Z,24.60
2018-09-14T15:55:12.766Z,24.60
2018-09-14T15:57:40.226Z,24.60
2018-09-14T16:00:07.758Z,24.60
2018-09-14T16:02:35.377Z,24.60
2018-09-14T16:05:02.927Z,24.70
2018-09-14T16:07:30.426Z,24.80
2018-09-14T16:09:57.890Z,24.80
2018-09-14T16:12:25.353Z,24.80
2018-09-14T16:14:52.830Z,24.70
2018-09-14T16:17:20.331Z,24.60
2018-09-14T16:19:47.832Z,24.60
2018-09-14T16:22:15.396Z,24.60
2018-09-14T16:24:42.966Z,24.60
2018-09-14T16:27:10.402Z,24.60
2018-09-14T16:29:37.893Z,24.60
2018-09-14T16:32:05.451Z,24.60
2018-09-14T16:34:32.910Z,24.50
2018-09-14T16:37:00.411Z,24.50
2018-09-14T16:39:27.875Z,24.40
2018-09-14T16:41:55.300Z,24.40
2018-09-14T16:44:22.792Z,24.40
2018-09-14T16:46:50.281Z,24.40
2018-09-14T16:49:17.769Z,24.40
2018-09-14T16:51:45.299Z,24.40
2018-09-14T16:54:12.747Z,24.30
2018-09-14T16:56:40.875Z,24.40
2018-09-14T16:59:08.381Z,24.40
2018-09-14T17:01:35.946Z,24.40
2018-09-14T17:04:03.437Z,24.40
2018-09-14T17:06:30.942Z,24.40
2018-09-14T17:08:58.761Z,24.40
2018-09-14T17:11:26.217Z,24.40
2018-09-14T17:13:53.790Z,24.40
2018-09-14T17:16:21.330Z,24.40
2018-09-14T17:18:48.736Z,24.40
2018-09-14T17:21:16.349Z,24.40
2018-09-14T17:23:43.894Z,24.40
2018-09-14T17:26:11.385Z,24.40
2018-09-14T17:28:38.885Z,24.40
2018-09-14T17:31:06.527Z,24.30
2018-09-14T17:33:33.946Z,24.30
2018-09-14T17:36:01.394Z,24.30
2018-09-14T17:38:28.853Z,24.30
2018-09-14T17:40:56.296Z,24.30
2018-09-14T17:43:23.831Z,24.30
2018-09-14T17:45:51.312Z,24.30
2018-09-14T17:48:18.759Z,24.40
2018-09-14T17:50:46.256Z,24.40
2018-09-14T17:53:13.774Z,24.40
2018-09-14T17:55:41.266Z,24.40
2018-09-14T17:58:08.764Z,24.40
2018-09-14T18:00:36.333Z,24.40
2018-09-14T18:03:03.898Z,24.40
2018-09-14T18:05:31.355Z,24.40
2018-09-14T18:07:58.840Z,24.40
2018-09-14T18:10:26.275Z,24.40
2018-09-14T18:12:53.747Z,24.40
2018-09-14T18:15:21.267Z,24.40
2018-09-14T18:17:48.933Z,24.20
2018-09-14T18:20:16.411Z,24.10
2018-09-14T18:22:43.998Z,24.00
2018-09-14T18:25:11.543Z,24.10
2018-09-14T18:27:39.087Z,24.20
2018-09-14T18:30:06.894Z,24.00
2018-09-14T18:32:34.431Z,24.00
2018-09-14T18:35:02.125Z,24.10
2018-09-14T18:37:29.614Z,24.10
2018-09-14T18:39:57.086Z,24.20
2018-09-14T18:42:24.652Z,24.20
2018-09-14T18:44:52.727Z,24.20
2018-09-14T18:47:20.223Z,24.30
2018-09-14T18:49:47.668Z,24.20
2018-09-14T18:52:15.206Z,24.20
2018-09-14T18:54:42.682Z,24.20
2018-09-14T18:57:10.147Z,24.10
2018-09-14T18:59:37.650Z,23.80
2018-09-14T19:02:05.130Z,23.50
2018-09-14T19:04:32.689Z,23.40
2018-09-14T19:07:00.118Z,23.50
2018-09-14T19:09:27.741Z,23.70
2018-09-14T19:11:55.223Z,23.90
2018-09-14T19:14:22.942Z,24.00
2018-09-14T19:16:50.394Z,24.00
2018-09-14T19:19:18.018Z,24.00
2018-09-14T19:21:45.418Z,24.00
2018-09-14T19:24:12.982Z,24.00
2018-09-14T19:26:40.427Z,24.00
2018-09-14T19:29:07.891Z,24.00
2018-09-14T19:31:35.583Z,23.90
2018-09-14T19:34:03.174Z,23.90
2018-09-14T19:36:30.839Z,24.00
2018-09-14T19:38:58.358Z,24.00
2018-09-14T19:41:25.840Z,24.00
2018-09-14T19:43:53.606Z,24.10
2018-09-14T19:46:21.209Z,24.10
2018-09-14T19:48:48.722Z,24.10
2018-09-14T19:51:16.320Z,24.10
2018-09-14T19:53:43.717Z,24.10
2018-09-14T19:56:11.298Z,24.00
2018-09-14T19:58:38.711Z,23.50
2018-09-14T20:01:06.234Z,23.60
2018-09-14T20:03:33.773Z,23.70
2018-09-14T20:06:01.289Z,23.80
2018-09-14T20:08:28.827Z,23.90
2018-09-14T20:10:56.465Z,24.00
2018-09-14T20:13:24.042Z,24.00
2018-09-14T20:15:51.562Z,24.00
2018-09-14T20:18:19.112Z,24.00
2018-09-14T20:20:46.566Z,23.90
2018-09-14T20:23:14.171Z,23.90
2018-09-14T20:25:41.747Z,23.90
2018-09-14T20:28:09.245Z,24.00
2018-09-14T20:30:36.873Z,24.00
2018-09-14T20:33:04.361Z,24.00
2018-09-14T20:35:31.920Z,23.60
2018-09-14T20:37:59.413Z,23.20
2018-09-14T20:40:26.833Z,23.30
2018-09-14T20:42:54.310Z,23.50
2018-09-14T20:45:21.808Z,23.10
2018-09-14T20:47:49.434Z,22.60
2018-09-14T20:50:17.021Z,21.90
2018-09-14T20:52:44.569Z,21.70
2018-09-14T20:55:12.027Z,22.00
2018-09-14T20:57:39.536Z,22.60
2018-09-14T21:00:07.260Z,23.00
2018-09-14T21:02:34.845Z,23.30
2018-09-14T21:05:03.426Z,23.50
2018-09-14T21:07:30.976Z,23.60
2018-09-14T21:09:58.523Z,23.70
2018-09-14T21:12:26.011Z,23.70
2018-09-14T21:14:53.678Z,23.80
2018-09-14T21:17:21.425Z,23.80
2018-09-14T21:19:48.969Z,23.80
2018-09-14T21:22:16.432Z,23.00
2018-09-14T21:24:43.990Z,22.50
2018-09-14T21:27:11.518Z,22.70
2018-09-14T21:29:39.183Z,23.00
2018-09-14T21:32:06.637Z,22.40
2018-09-14T21:34:34.145Z,21.70
2018-09-14T21:37:01.651Z,21.50
2018-09-14T21:39:29.109Z,21.40
2018-09-14T21:41:56.539Z,21.70
2018-09-14T21:44:24.025Z,21.30
2018-09-14T21:46:51.578Z,20.90
2018-09-14T21:49:19.051Z,20.80
2018-09-14T21:51:46.611Z,20.60
2018-09-14T21:54:14.079Z,20.60
2018-09-14T21:56:41.613Z,20.90
2018-09-14T21:59:09.034Z,21.50
2018-09-14T22:01:36.617Z,22.10
2018-09-14T22:04:04.179Z,22.60
2018-09-14T22:06:31.713Z,22.80
2018-09-14T22:08:59.261Z,22.80
2018-09-14T22:11:26.834Z,22.90
2018-09-14T22:13:54.365Z,22.90
2018-09-14T22:16:21.825Z,23.00
2018-09-14T22:18:49.437Z,23.10
2018-09-14T22:21:17.477Z,23.20
2018-09-14T22:23:44.937Z,23.10
2018-09-14T22:26:12.402Z,22.90
2018-09-14T22:28:39.947Z,23.10
2018-09-14T22:31:07.423Z,23.20
2018-09-14T22:33:34.873Z,23.30
2018-09-14T22:36:02.341Z,23.40
2018-09-14T22:38:29.776Z,23.50
2018-09-14T22:40:57.247Z,23.60
2018-09-14T22:43:24.715Z,23.60
2018-09-14T22:45:52.214Z,23.70
2018-09-14T22:48:19.668Z,23.70
2018-09-14T22:50:47.194Z,23.70
2018-09-14T22:53:14.630Z,23.70
2018-09-14T22:55:42.196Z,23.70
2018-09-14T22:58:09.673Z,23.80
2018-09-14T23:00:42.920Z,23.80
2018-09-14T23:03:10.505Z,23.80
2018-09-14T23:05:37.983Z,23.80
2018-09-14T23:08:05.515Z,23.80
2018-09-14T23:10:32.979Z,23.80
2018-09-14T23:13:00.573Z,23.80
2018-09-14T23:15:28.069Z,23.70
2018-09-14T23:17:55.558Z,23.60
2018-09-14T23:20:23.061Z,23.50
2018-09-14T23:22:50.546Z,23.20
2018-09-14T23:25:18.074Z,22.70
2018-09-14T23:27:45.595Z,22.10
2018-09-14T23:30:12.994Z,22.50
2018-09-14T23:32:40.464Z,22.90
2018-09-14T23:35:07.905Z,23.20
2018-09-14T23:37:35.354Z,23.40
2018-09-14T23:40:02.880Z,23.50
2018-09-14T23:42:30.307Z,23.30
2018-09-14T23:44:57.775Z,22.90
2018-09-14T23:47:25.247Z,22.50
2018-09-14T23:49:52.717Z,21.80
2018-09-14T23:52:20.238Z,21.30
2018-09-14T23:54:47.842Z,21.20
2018-09-14T23:57:15.273Z,21.40
2018-09-14T23:59:42.713Z,21.80
